<?xml version="1.0" encoding="UTF-8" standalone="no" ?>
<gpx xmlns="http://www.topografix.com/GPX/1/1" xmlns:xsi="http://www.w3.org/2001/XMLSchema-instance" xsi:schemaLocation="http://www.topografix.com/GPX/1/1 http://www.topografix.com/GPX/1/1/gpx.xsd" version="1.1" creator="VisuGPX - https://www.visugpx.com">
  <metadata>
    <name>Gardetta - Chialvetta : 12 juil. 2020 08:50:38</name>
    <desc><![CDATA[Un tour dans le VAL MAIRA 2020 : 4éme étape]]></desc>
  </metadata>
  <trk>
    <name><![CDATA[Gardetta - Chialvetta : 12 juil. 2020 08:50:38]]></name>
    <trkseg>
      <trkpt lat="44.40932" lon="7.01164">
        <ele>2336.0465558</ele>
        <time>2020-07-12T06:50:38Z</time>
      </trkpt>
      <trkpt lat="44.40952" lon="7.01109">
        <ele>2343.04437208</ele>
        <time>2020-07-12T06:51:23Z</time>
      </trkpt>
      <trkpt lat="44.40965" lon="7.01052">
        <ele>2340.04208152</ele>
        <time>2020-07-12T06:51:59Z</time>
      </trkpt>
      <trkpt lat="44.40961" lon="7.00991">
        <ele>2342.03963988</ele>
        <time>2020-07-12T06:52:47Z</time>
      </trkpt>
      <trkpt lat="44.40976" lon="7.00932">
        <ele>2346.0372826</ele>
        <time>2020-07-12T06:54:38Z</time>
      </trkpt>
      <trkpt lat="44.41002" lon="7.00883">
        <ele>2345.03533572</ele>
        <time>2020-07-12T06:56:20Z</time>
      </trkpt>
      <trkpt lat="44.41024" lon="7.00832">
        <ele>2355.03327012</ele>
        <time>2020-07-12T06:57:06Z</time>
      </trkpt>
      <trkpt lat="44.41048" lon="7.0078">
        <ele>2358.0311788</ele>
        <time>2020-07-12T06:57:56Z</time>
      </trkpt>
      <trkpt lat="44.41074" lon="7.00732">
        <ele>2368.02926012</ele>
        <time>2020-07-12T06:58:48Z</time>
      </trkpt>
      <trkpt lat="44.41057" lon="7.00674">
        <ele>2372.02695472</ele>
        <time>2020-07-12T06:59:32Z</time>
      </trkpt>
      <trkpt lat="44.41031" lon="7.00625">
        <ele>2369.0249824</ele>
        <time>2020-07-12T07:00:38Z</time>
      </trkpt>
      <trkpt lat="44.41034" lon="7.00564">
        <ele>2378.02254508</ele>
        <time>2020-07-12T07:01:57Z</time>
      </trkpt>
      <trkpt lat="44.40998" lon="7.00529">
        <ele>2378.0211396</ele>
        <time>2020-07-12T07:03:21Z</time>
      </trkpt>
      <trkpt lat="44.41036" lon="7.00447">
        <ele>2388.01786356</ele>
        <time>2020-07-12T07:04:51Z</time>
      </trkpt>
      <trkpt lat="44.41032" lon="7.00384">
        <ele>2394.015366</ele>
        <time>2020-07-12T07:11:13Z</time>
      </trkpt>
      <trkpt lat="44.41061" lon="7.00336">
        <ele>2405.01344676</ele>
        <time>2020-07-12T07:12:17Z</time>
      </trkpt>
      <trkpt lat="44.4109" lon="7.00382">
        <ele>2409.01527668</ele>
        <time>2020-07-12T07:13:00Z</time>
      </trkpt>
      <trkpt lat="44.41111" lon="7.00437">
        <ele>2411.0174612</ele>
        <time>2020-07-12T07:13:52Z</time>
      </trkpt>
      <trkpt lat="44.41133" lon="7.00492">
        <ele>2413.01966116</ele>
        <time>2020-07-12T07:14:49Z</time>
      </trkpt>
      <trkpt lat="44.41146" lon="7.00432">
        <ele>2414.01726712</ele>
        <time>2020-07-12T07:16:54Z</time>
      </trkpt>
      <trkpt lat="44.41151" lon="7.00316">
        <ele>2433.01264248</ele>
        <time>2020-07-12T07:18:25Z</time>
      </trkpt>
      <trkpt lat="44.41143" lon="7.00257">
        <ele>2443.01025836</ele>
        <time>2020-07-12T07:19:43Z</time>
      </trkpt>
      <trkpt lat="44.41172" lon="7.00217">
        <ele>2429.00868724</ele>
        <time>2020-07-12T07:22:30Z</time>
      </trkpt>
      <trkpt lat="44.41204" lon="7.00174">
        <ele>2417.00695884</ele>
        <time>2020-07-12T07:23:34Z</time>
      </trkpt>
      <trkpt lat="44.41224" lon="7.0012">
        <ele>2417.00479084</ele>
        <time>2020-07-12T07:24:04Z</time>
      </trkpt>
      <trkpt lat="44.41255" lon="7.00076">
        <ele>2412.00304236</ele>
        <time>2020-07-12T07:24:48Z</time>
      </trkpt>
      <trkpt lat="44.4127" lon="7.00017">
        <ele>2400.0006694</ele>
        <time>2020-07-12T07:25:22Z</time>
      </trkpt>
      <trkpt lat="44.41296" lon="6.99966">
        <ele>2395</ele>
        <time>2020-07-12T07:26:16Z</time>
      </trkpt>
      <trkpt lat="44.41317" lon="6.99913">
        <ele>2387</ele>
        <time>2020-07-12T07:27:12Z</time>
      </trkpt>
      <trkpt lat="44.41318" lon="6.99852">
        <ele>2381</ele>
        <time>2020-07-12T07:28:43Z</time>
      </trkpt>
      <trkpt lat="44.41338" lon="6.9973">
        <ele>2355</ele>
        <time>2020-07-12T07:30:47Z</time>
      </trkpt>
      <trkpt lat="44.41357" lon="6.99675">
        <ele>2339</ele>
        <time>2020-07-12T07:44:33Z</time>
      </trkpt>
      <trkpt lat="44.41438" lon="6.99662">
        <ele>2317</ele>
        <time>2020-07-12T07:47:23Z</time>
      </trkpt>
      <trkpt lat="44.41464" lon="6.99615">
        <ele>2298</ele>
        <time>2020-07-12T07:48:51Z</time>
      </trkpt>
      <trkpt lat="44.41491" lon="6.99567">
        <ele>2289</ele>
        <time>2020-07-12T07:49:34Z</time>
      </trkpt>
      <trkpt lat="44.41529" lon="6.99537">
        <ele>2289</ele>
        <time>2020-07-12T07:50:35Z</time>
      </trkpt>
      <trkpt lat="44.41563" lon="6.99499">
        <ele>2283</ele>
        <time>2020-07-12T07:51:41Z</time>
      </trkpt>
      <trkpt lat="44.41598" lon="6.99457">
        <ele>2279</ele>
        <time>2020-07-12T07:52:10Z</time>
      </trkpt>
      <trkpt lat="44.41639" lon="6.99431">
        <ele>2262</ele>
        <time>2020-07-12T07:53:11Z</time>
      </trkpt>
      <trkpt lat="44.41678" lon="6.99403">
        <ele>2273</ele>
        <time>2020-07-12T07:54:01Z</time>
      </trkpt>
      <trkpt lat="44.41719" lon="6.9938">
        <ele>2275</ele>
        <time>2020-07-12T07:54:42Z</time>
      </trkpt>
      <trkpt lat="44.41757" lon="6.99351">
        <ele>2262</ele>
        <time>2020-07-12T07:55:34Z</time>
      </trkpt>
      <trkpt lat="44.41769" lon="6.9929">
        <ele>2250</ele>
        <time>2020-07-12T07:56:41Z</time>
      </trkpt>
      <trkpt lat="44.41793" lon="6.99237">
        <ele>2241</ele>
        <time>2020-07-12T07:57:30Z</time>
      </trkpt>
      <trkpt lat="44.41826" lon="6.99197">
        <ele>2240</ele>
        <time>2020-07-12T07:58:18Z</time>
      </trkpt>
      <trkpt lat="44.4183" lon="6.99135">
        <ele>2228</ele>
        <time>2020-07-12T07:59:15Z</time>
      </trkpt>
      <trkpt lat="44.41851" lon="6.99082">
        <ele>2224</ele>
        <time>2020-07-12T07:59:58Z</time>
      </trkpt>
      <trkpt lat="44.41853" lon="6.9902">
        <ele>2212</ele>
        <time>2020-07-12T08:01:01Z</time>
      </trkpt>
      <trkpt lat="44.41869" lon="6.98962">
        <ele>2198</ele>
        <time>2020-07-12T08:01:51Z</time>
      </trkpt>
      <trkpt lat="44.41894" lon="6.98909">
        <ele>2186</ele>
        <time>2020-07-12T08:02:51Z</time>
      </trkpt>
      <trkpt lat="44.41927" lon="6.98868">
        <ele>2179</ele>
        <time>2020-07-12T08:03:44Z</time>
      </trkpt>
      <trkpt lat="44.41957" lon="6.98821">
        <ele>2171</ele>
        <time>2020-07-12T08:04:38Z</time>
      </trkpt>
      <trkpt lat="44.41986" lon="6.98775">
        <ele>2153</ele>
        <time>2020-07-12T08:06:10Z</time>
      </trkpt>
      <trkpt lat="44.42015" lon="6.98728">
        <ele>2136</ele>
        <time>2020-07-12T08:07:34Z</time>
      </trkpt>
      <trkpt lat="44.42045" lon="6.98681">
        <ele>2122</ele>
        <time>2020-07-12T08:08:30Z</time>
      </trkpt>
      <trkpt lat="44.42077" lon="6.98637">
        <ele>2110</ele>
        <time>2020-07-12T08:09:51Z</time>
      </trkpt>
      <trkpt lat="44.42117" lon="6.98609">
        <ele>2101</ele>
        <time>2020-07-12T08:11:05Z</time>
      </trkpt>
      <trkpt lat="44.4216" lon="6.98593">
        <ele>2079</ele>
        <time>2020-07-12T08:12:50Z</time>
      </trkpt>
      <trkpt lat="44.42191" lon="6.98549">
        <ele>2068</ele>
        <time>2020-07-12T08:13:48Z</time>
      </trkpt>
      <trkpt lat="44.42219" lon="6.98501">
        <ele>2056</ele>
        <time>2020-07-12T08:15:05Z</time>
      </trkpt>
      <trkpt lat="44.42248" lon="6.98454">
        <ele>2039</ele>
        <time>2020-07-12T08:16:14Z</time>
      </trkpt>
      <trkpt lat="44.42287" lon="6.98423">
        <ele>2038</ele>
        <time>2020-07-12T08:17:04Z</time>
      </trkpt>
      <trkpt lat="44.42323" lon="6.98388">
        <ele>2034</ele>
        <time>2020-07-12T08:17:52Z</time>
      </trkpt>
      <trkpt lat="44.42361" lon="6.98359">
        <ele>2017</ele>
        <time>2020-07-12T08:18:36Z</time>
      </trkpt>
      <trkpt lat="44.42395" lon="6.98318">
        <ele>2007</ele>
        <time>2020-07-12T08:53:03Z</time>
      </trkpt>
      <trkpt lat="44.42433" lon="6.98286">
        <ele>2002</ele>
        <time>2020-07-12T08:53:48Z</time>
      </trkpt>
      <trkpt lat="44.42475" lon="6.9827">
        <ele>1996</ele>
        <time>2020-07-12T08:55:04Z</time>
      </trkpt>
      <trkpt lat="44.42487" lon="6.98212">
        <ele>1993</ele>
        <time>2020-07-12T08:55:49Z</time>
      </trkpt>
      <trkpt lat="44.4249" lon="6.98149">
        <ele>1971</ele>
        <time>2020-07-12T08:57:00Z</time>
      </trkpt>
      <trkpt lat="44.42473" lon="6.98092">
        <ele>1955</ele>
        <time>2020-07-12T08:57:47Z</time>
      </trkpt>
      <trkpt lat="44.42487" lon="6.98033">
        <ele>1950</ele>
        <time>2020-07-12T08:58:55Z</time>
      </trkpt>
      <trkpt lat="44.42531" lon="6.98024">
        <ele>1934</ele>
        <time>2020-07-12T09:03:29Z</time>
      </trkpt>
      <trkpt lat="44.42575" lon="6.98032">
        <ele>1925</ele>
        <time>2020-07-12T09:04:09Z</time>
      </trkpt>
      <trkpt lat="44.42618" lon="6.98019">
        <ele>1929</ele>
        <time>2020-07-12T09:04:43Z</time>
      </trkpt>
      <trkpt lat="44.42663" lon="6.9802">
        <ele>1927</ele>
        <time>2020-07-12T09:05:18Z</time>
      </trkpt>
      <trkpt lat="44.42705" lon="6.98037">
        <ele>1918</ele>
        <time>2020-07-12T09:05:48Z</time>
      </trkpt>
      <trkpt lat="44.42745" lon="6.98009">
        <ele>1917</ele>
        <time>2020-07-12T09:06:23Z</time>
      </trkpt>
      <trkpt lat="44.42782" lon="6.97975">
        <ele>1910</ele>
        <time>2020-07-12T09:07:02Z</time>
      </trkpt>
      <trkpt lat="44.42826" lon="6.97975">
        <ele>1903</ele>
        <time>2020-07-12T09:07:37Z</time>
      </trkpt>
      <trkpt lat="44.42858" lon="6.97933">
        <ele>1903</ele>
        <time>2020-07-12T09:08:13Z</time>
      </trkpt>
      <trkpt lat="44.42893" lon="6.97897">
        <ele>1891</ele>
        <time>2020-07-12T09:10:01Z</time>
      </trkpt>
      <trkpt lat="44.42937" lon="6.97885">
        <ele>1877</ele>
        <time>2020-07-12T09:11:14Z</time>
      </trkpt>
      <trkpt lat="44.42978" lon="6.9786">
        <ele>1879</ele>
        <time>2020-07-12T09:12:10Z</time>
      </trkpt>
      <trkpt lat="44.4302" lon="6.97849">
        <ele>1884</ele>
        <time>2020-07-12T09:12:54Z</time>
      </trkpt>
      <trkpt lat="44.43041" lon="6.97904">
        <ele>1881</ele>
        <time>2020-07-12T09:13:27Z</time>
      </trkpt>
      <trkpt lat="44.43054" lon="6.97964">
        <ele>1871</ele>
        <time>2020-07-12T09:14:46Z</time>
      </trkpt>
      <trkpt lat="44.43095" lon="6.97991">
        <ele>1867</ele>
        <time>2020-07-12T09:15:30Z</time>
      </trkpt>
      <trkpt lat="44.43126" lon="6.98036">
        <ele>1862</ele>
        <time>2020-07-12T09:16:06Z</time>
      </trkpt>
      <trkpt lat="44.43169" lon="6.98046">
        <ele>1847</ele>
        <time>2020-07-12T09:16:44Z</time>
      </trkpt>
      <trkpt lat="44.43194" lon="6.98096">
        <ele>1832</ele>
        <time>2020-07-12T09:17:22Z</time>
      </trkpt>
      <trkpt lat="44.43214" lon="6.98152">
        <ele>1841</ele>
        <time>2020-07-12T09:18:59Z</time>
      </trkpt>
      <trkpt lat="44.43245" lon="6.98194">
        <ele>1835</ele>
        <time>2020-07-12T09:21:16Z</time>
      </trkpt>
      <trkpt lat="44.43261" lon="6.98251">
        <ele>1828</ele>
        <time>2020-07-12T09:22:11Z</time>
      </trkpt>
      <trkpt lat="44.43305" lon="6.98261">
        <ele>1811</ele>
        <time>2020-07-12T09:23:45Z</time>
      </trkpt>
      <trkpt lat="44.43348" lon="6.98254">
        <ele>1803</ele>
        <time>2020-07-12T09:25:25Z</time>
      </trkpt>
      <trkpt lat="44.43393" lon="6.98251">
        <ele>1791</ele>
        <time>2020-07-12T09:33:11Z</time>
      </trkpt>
      <trkpt lat="44.43433" lon="6.98279">
        <ele>1791</ele>
        <time>2020-07-12T09:34:04Z</time>
      </trkpt>
      <trkpt lat="44.43473" lon="6.98304">
        <ele>1771</ele>
        <time>2020-07-12T09:35:18Z</time>
      </trkpt>
      <trkpt lat="44.43513" lon="6.9833">
        <ele>1758</ele>
        <time>2020-07-12T09:36:31Z</time>
      </trkpt>
      <trkpt lat="44.4354" lon="6.98379">
        <ele>1747</ele>
        <time>2020-07-12T09:37:28Z</time>
      </trkpt>
      <trkpt lat="44.4358" lon="6.98405">
        <ele>1734</ele>
        <time>2020-07-12T09:38:13Z</time>
      </trkpt>
      <trkpt lat="44.43609" lon="6.98448">
        <ele>1729</ele>
        <time>2020-07-12T09:38:59Z</time>
      </trkpt>
      <trkpt lat="44.43612" lon="6.98511">
        <ele>1708</ele>
        <time>2020-07-12T09:40:22Z</time>
      </trkpt>
      <trkpt lat="44.43583" lon="6.98558">
        <ele>1709</ele>
        <time>2020-07-12T09:41:44Z</time>
      </trkpt>
      <trkpt lat="44.43623" lon="6.9853">
        <ele>1709</ele>
        <time>2020-07-12T10:24:43Z</time>
      </trkpt>
      <trkpt lat="44.4366" lon="6.98564">
        <ele>1699</ele>
        <time>2020-07-12T10:27:31Z</time>
      </trkpt>
      <trkpt lat="44.43686" lon="6.98614">
        <ele>1695</ele>
        <time>2020-07-12T10:29:22Z</time>
      </trkpt>
      <trkpt lat="44.43714" lon="6.98662">
        <ele>1678</ele>
        <time>2020-07-12T10:30:28Z</time>
      </trkpt>
      <trkpt lat="44.43748" lon="6.98701">
        <ele>1675</ele>
        <time>2020-07-12T10:31:15Z</time>
      </trkpt>
      <trkpt lat="44.43775" lon="6.98751">
        <ele>1673</ele>
        <time>2020-07-12T10:32:44Z</time>
      </trkpt>
      <trkpt lat="44.43837" lon="6.98837">
        <ele>1660</ele>
        <time>2020-07-12T10:34:22Z</time>
      </trkpt>
      <trkpt lat="44.43865" lon="6.98885">
        <ele>1647</ele>
        <time>2020-07-12T10:35:59Z</time>
      </trkpt>
      <trkpt lat="44.43886" lon="6.9894">
        <ele>1638</ele>
        <time>2020-07-12T10:37:16Z</time>
      </trkpt>
      <trkpt lat="44.43922" lon="6.98977">
        <ele>1641</ele>
        <time>2020-07-12T10:38:53Z</time>
      </trkpt>
      <trkpt lat="44.43952" lon="6.99023">
        <ele>1623</ele>
        <time>2020-07-12T10:40:48Z</time>
      </trkpt>
      <trkpt lat="44.43985" lon="6.99132">
        <ele>1633</ele>
        <time>2020-07-12T10:42:25Z</time>
      </trkpt>
      <trkpt lat="44.43951" lon="6.99173">
        <ele>1617</ele>
        <time>2020-07-12T11:06:33Z</time>
      </trkpt>
      <trkpt lat="44.4395" lon="6.99178">
        <ele>1616</ele>
        <time>2020-07-12T11:15:43Z</time>
      </trkpt>
      <trkpt lat="44.4395" lon="6.99178">
        <ele>1616</ele>
        <time>2020-07-12T11:15:43Z</time>
      </trkpt>
      <trkpt lat="44.442" lon="6.99322">
        <ele>1622</ele>
        <time>2020-07-12T12:22:25Z</time>
      </trkpt>
      <trkpt lat="44.44243" lon="6.99333">
        <ele>1600</ele>
        <time>2020-07-12T12:23:12Z</time>
      </trkpt>
      <trkpt lat="44.44285" lon="6.99338">
        <ele>1584</ele>
        <time>2020-07-12T12:23:48Z</time>
      </trkpt>
      <trkpt lat="44.44328" lon="6.99326">
        <ele>1584</ele>
        <time>2020-07-12T12:24:24Z</time>
      </trkpt>
      <trkpt lat="44.44372" lon="6.99327">
        <ele>1580</ele>
        <time>2020-07-12T12:25:00Z</time>
      </trkpt>
      <trkpt lat="44.44412" lon="6.99353">
        <ele>1568</ele>
        <time>2020-07-12T12:25:53Z</time>
      </trkpt>
      <trkpt lat="44.44457" lon="6.99351">
        <ele>1554</ele>
        <time>2020-07-12T12:26:58Z</time>
      </trkpt>
      <trkpt lat="44.44499" lon="6.99341">
        <ele>1555</ele>
        <time>2020-07-12T12:27:36Z</time>
      </trkpt>
      <trkpt lat="44.44542" lon="6.99357">
        <ele>1557</ele>
        <time>2020-07-12T12:28:06Z</time>
      </trkpt>
      <trkpt lat="44.44572" lon="6.99403">
        <ele>1557</ele>
        <time>2020-07-12T12:28:39Z</time>
      </trkpt>
      <trkpt lat="44.44601" lon="6.99451">
        <ele>1556</ele>
        <time>2020-07-12T12:29:25Z</time>
      </trkpt>
      <trkpt lat="44.44618" lon="6.99507">
        <ele>1545</ele>
        <time>2020-07-12T12:30:03Z</time>
      </trkpt>
      <trkpt lat="44.44637" lon="6.99563">
        <ele>1529</ele>
        <time>2020-07-12T12:30:43Z</time>
      </trkpt>
      <trkpt lat="44.44657" lon="6.99619">
        <ele>1535</ele>
        <time>2020-07-12T12:31:22Z</time>
      </trkpt>
      <trkpt lat="44.44682" lon="6.99672">
        <ele>1530</ele>
        <time>2020-07-12T12:32:07Z</time>
      </trkpt>
      <trkpt lat="44.44716" lon="6.99713">
        <ele>1524</ele>
        <time>2020-07-12T12:32:45Z</time>
      </trkpt>
      <trkpt lat="44.44747" lon="6.99757">
        <ele>1520</ele>
        <time>2020-07-12T12:33:28Z</time>
      </trkpt>
      <trkpt lat="44.44781" lon="6.99796">
        <ele>1513</ele>
        <time>2020-07-12T12:34:11Z</time>
      </trkpt>
      <trkpt lat="44.44818" lon="6.9983">
        <ele>1513</ele>
        <time>2020-07-12T12:34:53Z</time>
      </trkpt>
      <trkpt lat="44.44858" lon="6.99856">
        <ele>1513</ele>
        <time>2020-07-12T12:35:34Z</time>
      </trkpt>
      <trkpt lat="44.4489" lon="6.99899">
        <ele>1508</ele>
        <time>2020-07-12T12:36:16Z</time>
      </trkpt>
      <trkpt lat="44.44927" lon="6.99934">
        <ele>1498</ele>
        <time>2020-07-12T12:37:10Z</time>
      </trkpt>
      <trkpt lat="44.44967" lon="6.99908">
        <ele>1485</ele>
        <time>2020-07-12T12:38:05Z</time>
      </trkpt>
      <trkpt lat="44.44968" lon="6.99971">
        <ele>1493</ele>
        <time>2020-07-12T12:39:15Z</time>
      </trkpt>
      <trkpt lat="44.4498" lon="7.00022">
        <ele>1485.0008848</ele>
        <time>2020-07-12T12:41:20Z</time>
      </trkpt>
      <trkpt lat="44.4498" lon="7.00022">
        <ele>1485.0008848</ele>
        <time>2020-07-12T12:41:21Z</time>
      </trkpt>
    </trkseg>
  </trk>
</gpx>